sensor_id;sensor_type;location;lat;lon;timestamp;P1;durP1;ratioP1;P2;durP2;ratioP2
54193;SDS011;40102;50.906;6.972;2022-12-07T00:00:52;23.13;;;12.45;;
54193;SDS011;40102;50.906;6.972;2022-12-07T00:03:18;23.13;;;12.48;;
54193;SDS011;40102;50.906;6.972;2022-12-07T00:05:44;21.67;;;12.57;;
54193;SDS011;40102;50.906;6.972;2022-12-07T00:08:09;23.20;;;11.75;;
54193;SDS011;40102;50.906;6.972;2022-12-07T00:10:34;22.45;;;12.13;;
54193;SDS011;40102;50.906;6.972;2022-12-07T00:13:00;21.88;;;11.63;;
54193;SDS011;40102;50.906;6.972;2022-12-07T00:15:25;22.90;;;12.68;;
54193;SDS011;40102;50.906;6.972;2022-12-07T00:17:51;22.48;;;11.88;;
54193;SDS011;40102;50.906;6.972;2022-12-07T00:20:16;21.48;;;11.55;;
54193;SDS011;40102;50.906;6.972;2022-12-07T00:22:41;25.80;;;11.77;;
54193;SDS011;40102;50.906;6.972;2022-12-07T00:25:07;23.23;;;11.93;;
54193;SDS011;40102;50.906;6.972;2022-12-07T00:27:32;24.85;;;12.43;;
54193;SDS011;40102;50.906;6.972;2022-12-07T00:29:58;24.63;;;11.95;;
54193;SDS011;40102;50.906;6.972;2022-12-07T00:32:23;22.10;;;11.90;;
54193;SDS011;40102;50.906;6.972;2022-12-07T00:34:48;24.48;;;12.30;;
54193;SDS011;40102;50.906;6.972;2022-12-07T00:37:14;25.42;;;12.07;;
54193;SDS011;40102;50.906;6.972;2022-12-07T00:39:39;24.75;;;11.88;;
54193;SDS011;40102;50.906;6.972;2022-12-07T00:42:04;29.45;;;12.95;;
54193;SDS011;40102;50.906;6.972;2022-12-07T00:44:30;20.63;;;11.25;;
54193;SDS011;40102;50.906;6.972;2022-12-07T00:46:55;21.58;;;11.77;;
54193;SDS011;40102;50.906;6.972;2022-12-07T00:49:21;20.23;;;11.55;;
54193;SDS011;40102;50.906;6.972;2022-12-07T00:51:47;21.40;;;11.35;;
54193;SDS011;40102;50.906;6.972;2022-12-07T00:54:13;24.23;;;12.88;;
54193;SDS011;40102;50.906;6.972;2022-12-07T00:56:41;25.23;;;12.20;;
54193;SDS011;40102;50.906;6.972;2022-12-07T00:59:07;22.30;;;12.30;;
54193;SDS011;40102;50.906;6.972;2022-12-07T01:01:36;26.60;;;13.10;;
54193;SDS011;40102;50.906;6.972;2022-12-07T01:04:02;24.45;;;11.82;;
54193;SDS011;40102;50.906;6.972;2022-12-07T01:06:28;21.48;;;12.52;;
54193;SDS011;40102;50.906;6.972;2022-12-07T01:08:54;21.85;;;12.38;;
54193;SDS011;40102;50.906;6.972;2022-12-07T01:11:21;23.58;;;12.90;;
54193;SDS011;40102;50.906;6.972;2022-12-07T01:13:52;23.00;;;12.90;;
54193;SDS011;40102;50.906;6.972;2022-12-07T01:16:19;24.73;;;12.82;;
54193;SDS011;40102;50.906;6.972;2022-12-07T01:18:47;24.42;;;13.80;;
54193;SDS011;40102;50.906;6.972;2022-12-07T01:21:18;26.92;;;12.70;;
54193;SDS011;40102;50.906;6.972;2022-12-07T01:23:48;23.95;;;12.90;;
54193;SDS011;40102;50.906;6.972;2022-12-07T01:26:16;26.67;;;12.65;;
54193;SDS011;40102;50.906;6.972;2022-12-07T01:28:43;24.58;;;12.73;;
54193;SDS011;40102;50.906;6.972;2022-12-07T01:31:10;20.35;;;12.20;;
54193;SDS011;40102;50.906;6.972;2022-12-07T01:33:39;23.50;;;12.50;;
54193;SDS011;40102;50.906;6.972;2022-12-07T01:36:08;23.85;;;13.30;;
54193;SDS011;40102;50.906;6.972;2022-12-07T01:38:55;22.40;;;12.23;;
54193;SDS011;40102;50.906;6.972;2022-12-07T01:41:26;24.08;;;11.85;;
54193;SDS011;40102;50.906;6.972;2022-12-07T01:46:40;22.92;;;11.75;;
54193;SDS011;40102;50.906;6.972;2022-12-07T01:49:14;20.47;;;12.63;;
54193;SDS011;40102;50.906;6.972;2022-12-07T01:51:45;21.05;;;11.80;;
54193;SDS011;40102;50.906;6.972;2022-12-07T01:54:12;22.48;;;12.05;;
54193;SDS011;40102;50.906;6.972;2022-12-07T01:56:40;23.08;;;12.40;;
54193;SDS011;40102;50.906;6.972;2022-12-07T01:59:09;22.67;;;13.07;;
54193;SDS011;40102;50.906;6.972;2022-12-07T02:01:34;22.48;;;12.38;;
54193;SDS011;40102;50.906;6.972;2022-12-07T02:04:00;22.10;;;11.35;;
54193;SDS011;40102;50.906;6.972;2022-12-07T02:06:26;24.25;;;12.93;;
54193;SDS011;40102;50.906;6.972;2022-12-07T02:08:52;20.30;;;12.00;;
54193;SDS011;40102;50.906;6.972;2022-12-07T02:11:18;24.65;;;13.45;;
54193;SDS011;40102;50.906;6.972;2022-12-07T02:13:44;25.05;;;12.63;;
54193;SDS011;40102;50.906;6.972;2022-12-07T02:16:17;20.98;;;12.02;;
54193;SDS011;40102;50.906;6.972;2022-12-07T02:19:02;25.30;;;13.40;;
54193;SDS011;40102;50.906;6.972;2022-12-07T02:30:13;23.70;;;13.00;;
54193;SDS011;40102;50.906;6.972;2022-12-07T02:35:13;22.38;;;12.48;;
54193;SDS011;40102;50.906;6.972;2022-12-07T02:37:55;24.40;;;11.98;;
54193;SDS011;40102;50.906;6.972;2022-12-07T02:40:31;23.48;;;12.07;;
54193;SDS011;40102;50.906;6.972;2022-12-07T02:43:08;25.35;;;12.85;;
54193;SDS011;40102;50.906;6.972;2022-12-07T02:45:40;23.38;;;13.05;;
54193;SDS011;40102;50.906;6.972;2022-12-07T02:48:07;24.10;;;12.40;;
54193;SDS011;40102;50.906;6.972;2022-12-07T02:50:35;23.40;;;12.13;;
54193;SDS011;40102;50.906;6.972;2022-12-07T02:53:00;23.00;;;11.98;;
54193;SDS011;40102;50.906;6.972;2022-12-07T02:55:30;23.48;;;12.88;;
54193;SDS011;40102;50.906;6.972;2022-12-07T03:01:02;23.52;;;12.45;;
54193;SDS011;40102;50.906;6.972;2022-12-07T03:03:36;22.40;;;12.55;;
54193;SDS011;40102;50.906;6.972;2022-12-07T03:06:09;22.08;;;12.30;;
54193;SDS011;40102;50.906;6.972;2022-12-07T03:11:26;26.92;;;13.23;;
54193;SDS011;40102;50.906;6.972;2022-12-07T03:14:08;23.95;;;12.88;;
54193;SDS011;40102;50.906;6.972;2022-12-07T03:16:53;27.40;;;13.98;;
54193;SDS011;40102;50.906;6.972;2022-12-07T03:19:25;25.88;;;13.38;;
54193;SDS011;40102;50.906;6.972;2022-12-07T03:21:53;22.15;;;12.27;;
54193;SDS011;40102;50.906;6.972;2022-12-07T03:26:53;22.63;;;12.25;;
54193;SDS011;40102;50.906;6.972;2022-12-07T03:29:28;24.15;;;12.93;;
54193;SDS011;40102;50.906;6.972;2022-12-07T03:32:04;27.52;;;14.45;;
54193;SDS011;40102;50.906;6.972;2022-12-07T03:34:40;24.80;;;12.77;;
54193;SDS011;40102;50.906;6.972;2022-12-07T03:37:08;27.25;;;14.07;;
54193;SDS011;40102;50.906;6.972;2022-12-07T03:39:50;25.52;;;13.82;;
54193;SDS011;40102;50.906;6.972;2022-12-07T03:42:26;24.35;;;12.80;;
54193;SDS011;40102;50.906;6.972;2022-12-07T03:44:52;26.02;;;13.65;;
54193;SDS011;40102;50.906;6.972;2022-12-07T03:52:58;25.67;;;13.02;;
54193;SDS011;40102;50.906;6.972;2022-12-07T03:55:29;23.80;;;12.25;;
54193;SDS011;40102;50.906;6.972;2022-12-07T03:58:09;23.13;;;12.75;;
54193;SDS011;40102;50.906;6.972;2022-12-07T04:00:37;22.10;;;12.05;;
54193;SDS011;40102;50.906;6.972;2022-12-07T04:03:03;25.40;;;12.77;;
54193;SDS011;40102;50.906;6.972;2022-12-07T04:05:28;21.52;;;11.63;;
54193;SDS011;40102;50.906;6.972;2022-12-07T04:07:54;25.35;;;11.77;;
54193;SDS011;40102;50.906;6.972;2022-12-07T04:10:19;22.98;;;11.77;;
54193;SDS011;40102;50.906;6.972;2022-12-07T04:12:45;19.77;;;11.18;;
54193;SDS011;40102;50.906;6.972;2022-12-07T04:15:10;21.02;;;11.75;;
54193;SDS011;40102;50.906;6.972;2022-12-07T04:17:36;23.75;;;12.23;;
54193;SDS011;40102;50.906;6.972;2022-12-07T04:20:02;22.13;;;11.30;;
54193;SDS011;40102;50.906;6.972;2022-12-07T04:22:28;24.17;;;11.95;;
54193;SDS011;40102;50.906;6.972;2022-12-07T04:24:54;22.73;;;11.73;;
54193;SDS011;40102;50.906;6.972;2022-12-07T04:27:19;22.27;;;11.57;;
54193;SDS011;40102;50.906;6.972;2022-12-07T04:29:44;22.02;;;11.65;;
54193;SDS011;40102;50.906;6.972;2022-12-07T04:32:10;24.27;;;11.77;;
54193;SDS011;40102;50.906;6.972;2022-12-07T04:34:35;22.98;;;12.50;;
54193;SDS011;40102;50.906;6.972;2022-12-07T04:37:01;22.38;;;11.52;;
54193;SDS011;40102;50.906;6.972;2022-12-07T04:39:31;23.75;;;11.80;;
54193;SDS011;40102;50.906;6.972;2022-12-07T04:41:58;23.13;;;11.40;;
54193;SDS011;40102;50.906;6.972;2022-12-07T04:44:24;20.67;;;10.50;;
54193;SDS011;40102;50.906;6.972;2022-12-07T04:46:51;23.83;;;12.43;;
54193;SDS011;40102;50.906;6.972;2022-12-07T04:49:17;18.85;;;10.38;;
54193;SDS011;40102;50.906;6.972;2022-12-07T04:51:43;21.80;;;11.90;;
54193;SDS011;40102;50.906;6.972;2022-12-07T04:54:09;22.25;;;11.73;;
54193;SDS011;40102;50.906;6.972;2022-12-07T04:56:35;23.33;;;11.30;;
54193;SDS011;40102;50.906;6.972;2022-12-07T04:59:01;20.27;;;11.88;;
54193;SDS011;40102;50.906;6.972;2022-12-07T05:01:27;20.35;;;11.30;;
54193;SDS011;40102;50.906;6.972;2022-12-07T05:03:52;23.05;;;11.48;;
54193;SDS011;40102;50.906;6.972;2022-12-07T05:06:18;17.85;;;10.82;;
54193;SDS011;40102;50.906;6.972;2022-12-07T05:08:44;17.42;;;10.38;;
54193;SDS011;40102;50.906;6.972;2022-12-07T05:11:10;19.40;;;10.77;;
54193;SDS011;40102;50.906;6.972;2022-12-07T05:13:54;19.20;;;10.93;;
54193;SDS011;40102;50.906;6.972;2022-12-07T05:16:19;17.13;;;9.40;;
54193;SDS011;40102;50.906;6.972;2022-12-07T05:18:44;21.23;;;11.40;;
54193;SDS011;40102;50.906;6.972;2022-12-07T05:21:10;19.58;;;9.73;;
54193;SDS011;40102;50.906;6.972;2022-12-07T05:23:35;18.60;;;10.27;;
54193;SDS011;40102;50.906;6.972;2022-12-07T05:26:00;16.73;;;9.32;;
54193;SDS011;40102;50.906;6.972;2022-12-07T05:28:26;18.98;;;10.38;;
54193;SDS011;40102;50.906;6.972;2022-12-07T05:30:51;18.95;;;11.07;;
54193;SDS011;40102;50.906;6.972;2022-12-07T05:33:16;19.40;;;10.88;;
54193;SDS011;40102;50.906;6.972;2022-12-07T05:35:42;21.15;;;11.32;;
54193;SDS011;40102;50.906;6.972;2022-12-07T05:38:07;21.20;;;10.88;;
54193;SDS011;40102;50.906;6.972;2022-12-07T05:40:33;20.10;;;10.93;;
54193;SDS011;40102;50.906;6.972;2022-12-07T05:43:01;19.00;;;10.68;;
54193;SDS011;40102;50.906;6.972;2022-12-07T05:45:26;20.58;;;10.73;;
54193;SDS011;40102;50.906;6.972;2022-12-07T05:47:52;22.67;;;11.20;;
54193;SDS011;40102;50.906;6.972;2022-12-07T05:50:17;21.35;;;10.65;;
54193;SDS011;40102;50.906;6.972;2022-12-07T05:52:42;20.00;;;11.07;;
54193;SDS011;40102;50.906;6.972;2022-12-07T05:55:08;23.65;;;11.00;;
54193;SDS011;40102;50.906;6.972;2022-12-07T05:57:33;19.73;;;11.10;;
54193;SDS011;40102;50.906;6.972;2022-12-07T05:59:58;21.77;;;11.75;;
54193;SDS011;40102;50.906;6.972;2022-12-07T06:02:24;23.15;;;12.23;;
54193;SDS011;40102;50.906;6.972;2022-12-07T06:04:49;21.33;;;11.70;;
54193;SDS011;40102;50.906;6.972;2022-12-07T06:07:15;23.08;;;11.40;;
54193;SDS011;40102;50.906;6.972;2022-12-07T06:09:41;20.33;;;11.43;;
54193;SDS011;40102;50.906;6.972;2022-12-07T06:12:08;22.85;;;11.40;;
54193;SDS011;40102;50.906;6.972;2022-12-07T06:14:54;21.80;;;11.27;;
54193;SDS011;40102;50.906;6.972;2022-12-07T06:17:19;21.83;;;11.48;;
54193;SDS011;40102;50.906;6.972;2022-12-07T06:19:45;19.67;;;10.80;;
54193;SDS011;40102;50.906;6.972;2022-12-07T06:22:10;21.15;;;11.13;;
54193;SDS011;40102;50.906;6.972;2022-12-07T06:24:37;21.73;;;10.52;;
54193;SDS011;40102;50.906;6.972;2022-12-07T06:27:03;22.98;;;11.65;;
54193;SDS011;40102;50.906;6.972;2022-12-07T06:29:29;19.88;;;11.05;;
54193;SDS011;40102;50.906;6.972;2022-12-07T06:31:54;18.00;;;10.57;;
54193;SDS011;40102;50.906;6.972;2022-12-07T06:34:20;23.60;;;12.20;;
54193;SDS011;40102;50.906;6.972;2022-12-07T06:36:53;25.95;;;12.50;;
54193;SDS011;40102;50.906;6.972;2022-12-07T06:39:23;24.10;;;12.23;;
54193;SDS011;40102;50.906;6.972;2022-12-07T06:41:50;22.55;;;12.27;;
54193;SDS011;40102;50.906;6.972;2022-12-07T06:44:17;20.40;;;11.48;;
54193;SDS011;40102;50.906;6.972;2022-12-07T06:46:42;24.85;;;12.15;;
54193;SDS011;40102;50.906;6.972;2022-12-07T06:49:08;25.48;;;12.98;;
54193;SDS011;40102;50.906;6.972;2022-12-07T06:51:33;24.33;;;12.82;;
54193;SDS011;40102;50.906;6.972;2022-12-07T06:54:01;23.50;;;13.18;;
54193;SDS011;40102;50.906;6.972;2022-12-07T06:56:29;24.50;;;12.98;;
54193;SDS011;40102;50.906;6.972;2022-12-07T06:58:54;21.80;;;11.63;;
54193;SDS011;40102;50.906;6.972;2022-12-07T07:01:20;24.13;;;12.05;;
54193;SDS011;40102;50.906;6.972;2022-12-07T07:03:45;21.17;;;11.80;;
54193;SDS011;40102;50.906;6.972;2022-12-07T07:06:12;20.63;;;11.57;;
54193;SDS011;40102;50.906;6.972;2022-12-07T07:08:38;18.75;;;11.00;;
54193;SDS011;40102;50.906;6.972;2022-12-07T07:11:04;20.23;;;12.18;;
54193;SDS011;40102;50.906;6.972;2022-12-07T07:13:31;22.52;;;11.75;;
54193;SDS011;40102;50.906;6.972;2022-12-07T07:15:57;20.33;;;10.40;;
54193;SDS011;40102;50.906;6.972;2022-12-07T07:18:22;20.48;;;10.88;;
54193;SDS011;40102;50.906;6.972;2022-12-07T07:20:49;17.77;;;10.13;;
54193;SDS011;40102;50.906;6.972;2022-12-07T07:23:15;21.13;;;10.90;;
54193;SDS011;40102;50.906;6.972;2022-12-07T07:25:41;24.50;;;10.93;;
54193;SDS011;40102;50.906;6.972;2022-12-07T07:28:09;20.45;;;11.18;;
54193;SDS011;40102;50.906;6.972;2022-12-07T07:30:34;20.25;;;11.05;;
54193;SDS011;40102;50.906;6.972;2022-12-07T07:33:00;20.15;;;10.82;;
54193;SDS011;40102;50.906;6.972;2022-12-07T07:35:27;21.65;;;11.75;;
54193;SDS011;40102;50.906;6.972;2022-12-07T07:37:53;21.50;;;12.48;;
54193;SDS011;40102;50.906;6.972;2022-12-07T07:40:19;23.00;;;11.85;;
54193;SDS011;40102;50.906;6.972;2022-12-07T07:42:46;26.02;;;13.10;;
54193;SDS011;40102;50.906;6.972;2022-12-07T07:45:13;21.90;;;11.65;;
54193;SDS011;40102;50.906;6.972;2022-12-07T07:47:39;27.85;;;12.90;;
54193;SDS011;40102;50.906;6.972;2022-12-07T07:50:04;22.60;;;11.52;;
54193;SDS011;40102;50.906;6.972;2022-12-07T07:52:31;23.30;;;13.13;;
54193;SDS011;40102;50.906;6.972;2022-12-07T07:54:56;25.38;;;13.18;;
54193;SDS011;40102;50.906;6.972;2022-12-07T07:57:21;25.77;;;12.77;;
54193;SDS011;40102;50.906;6.972;2022-12-07T07:59:47;22.98;;;12.68;;
54193;SDS011;40102;50.906;6.972;2022-12-07T08:02:13;25.33;;;12.77;;
54193;SDS011;40102;50.906;6.972;2022-12-07T08:04:40;22.77;;;12.52;;
54193;SDS011;40102;50.906;6.972;2022-12-07T08:07:05;23.40;;;12.18;;
54193;SDS011;40102;50.906;6.972;2022-12-07T08:09:31;22.35;;;12.93;;
54193;SDS011;40102;50.906;6.972;2022-12-07T08:11:57;24.73;;;12.32;;
54193;SDS011;40102;50.906;6.972;2022-12-07T08:14:23;24.63;;;12.75;;
54193;SDS011;40102;50.906;6.972;2022-12-07T08:16:49;23.88;;;12.10;;
54193;SDS011;40102;50.906;6.972;2022-12-07T08:19:14;25.50;;;13.95;;
54193;SDS011;40102;50.906;6.972;2022-12-07T08:21:39;22.33;;;11.32;;
54193;SDS011;40102;50.906;6.972;2022-12-07T08:24:05;20.10;;;11.25;;
54193;SDS011;40102;50.906;6.972;2022-12-07T08:26:30;23.13;;;11.63;;
54193;SDS011;40102;50.906;6.972;2022-12-07T08:28:56;22.40;;;11.52;;
54193;SDS011;40102;50.906;6.972;2022-12-07T08:31:21;21.60;;;11.30;;
54193;SDS011;40102;50.906;6.972;2022-12-07T08:33:47;25.52;;;11.98;;
54193;SDS011;40102;50.906;6.972;2022-12-07T08:36:13;22.95;;;10.90;;
54193;SDS011;40102;50.906;6.972;2022-12-07T08:38:39;18.60;;;10.63;;
54193;SDS011;40102;50.906;6.972;2022-12-07T08:41:05;19.38;;;11.07;;
54193;SDS011;40102;50.906;6.972;2022-12-07T08:43:31;19.85;;;10.88;;
54193;SDS011;40102;50.906;6.972;2022-12-07T08:46:09;19.73;;;10.73;;
54193;SDS011;40102;50.906;6.972;2022-12-07T08:48:42;17.65;;;9.88;;
54193;SDS011;40102;50.906;6.972;2022-12-07T08:51:11;20.63;;;9.68;;
54193;SDS011;40102;50.906;6.972;2022-12-07T08:53:38;16.80;;;8.75;;
54193;SDS011;40102;50.906;6.972;2022-12-07T08:56:04;14.65;;;9.07;;
54193;SDS011;40102;50.906;6.972;2022-12-07T08:58:32;18.40;;;9.25;;
54193;SDS011;40102;50.906;6.972;2022-12-07T09:00:59;15.77;;;8.93;;
54193;SDS011;40102;50.906;6.972;2022-12-07T09:03:24;16.83;;;9.10;;
54193;SDS011;40102;50.906;6.972;2022-12-07T09:05:49;17.25;;;8.60;;
54193;SDS011;40102;50.906;6.972;2022-12-07T09:08:15;17.30;;;8.85;;
54193;SDS011;40102;50.906;6.972;2022-12-07T09:10:41;15.93;;;8.48;;
54193;SDS011;40102;50.906;6.972;2022-12-07T09:13:07;18.25;;;9.55;;
54193;SDS011;40102;50.906;6.972;2022-12-07T09:15:32;15.20;;;8.23;;
54193;SDS011;40102;50.906;6.972;2022-12-07T09:17:57;15.77;;;8.32;;
54193;SDS011;40102;50.906;6.972;2022-12-07T09:20:23;14.35;;;8.70;;
54193;SDS011;40102;50.906;6.972;2022-12-07T09:22:49;17.15;;;8.50;;
54193;SDS011;40102;50.906;6.972;2022-12-07T09:25:14;19.45;;;8.82;;
54193;SDS011;40102;50.906;6.972;2022-12-07T09:27:39;15.70;;;8.65;;
54193;SDS011;40102;50.906;6.972;2022-12-07T09:30:06;12.57;;;8.23;;
54193;SDS011;40102;50.906;6.972;2022-12-07T09:32:32;16.17;;;8.75;;
54193;SDS011;40102;50.906;6.972;2022-12-07T09:34:57;19.25;;;8.73;;
54193;SDS011;40102;50.906;6.972;2022-12-07T09:37:22;16.48;;;8.40;;
54193;SDS011;40102;50.906;6.972;2022-12-07T09:39:48;16.58;;;8.95;;
54193;SDS011;40102;50.906;6.972;2022-12-07T09:42:27;17.58;;;8.63;;
54193;SDS011;40102;50.906;6.972;2022-12-07T09:44:57;15.23;;;8.50;;
54193;SDS011;40102;50.906;6.972;2022-12-07T09:47:24;16.23;;;7.72;;
54193;SDS011;40102;50.906;6.972;2022-12-07T09:49:49;14.32;;;8.13;;
54193;SDS011;40102;50.906;6.972;2022-12-07T09:52:33;17.55;;;8.85;;
54193;SDS011;40102;50.906;6.972;2022-12-07T09:54:59;17.92;;;9.10;;
54193;SDS011;40102;50.906;6.972;2022-12-07T09:57:28;17.73;;;8.80;;
54193;SDS011;40102;50.906;6.972;2022-12-07T09:59:57;15.55;;;8.32;;
54193;SDS011;40102;50.906;6.972;2022-12-07T10:02:37;24.67;;;9.30;;
54193;SDS011;40102;50.906;6.972;2022-12-07T10:05:07;16.70;;;8.50;;
54193;SDS011;40102;50.906;6.972;2022-12-07T10:07:38;17.52;;;7.70;;
54193;SDS011;40102;50.906;6.972;2022-12-07T10:10:09;15.90;;;8.13;;
54193;SDS011;40102;50.906;6.972;2022-12-07T10:13:02;19.35;;;8.65;;
54193;SDS011;40102;50.906;6.972;2022-12-07T10:15:53;14.65;;;8.13;;
54193;SDS011;40102;50.906;6.972;2022-12-07T10:18:30;18.10;;;8.07;;
54193;SDS011;40102;50.906;6.972;2022-12-07T10:21:22;16.88;;;7.57;;
54193;SDS011;40102;50.906;6.972;2022-12-07T10:24:03;16.52;;;7.75;;
54193;SDS011;40102;50.906;6.972;2022-12-07T10:28:56;17.90;;;6.85;;
54193;SDS011;40102;50.906;6.972;2022-12-07T10:31:24;15.82;;;7.03;;
54193;SDS011;40102;50.906;6.972;2022-12-07T10:33:52;14.25;;;6.75;;
54193;SDS011;40102;50.906;6.972;2022-12-07T10:36:22;12.45;;;6.45;;
54193;SDS011;40102;50.906;6.972;2022-12-07T10:39:03;13.27;;;6.22;;
54193;SDS011;40102;50.906;6.972;2022-12-07T10:41:56;15.82;;;6.60;;
54193;SDS011;40102;50.906;6.972;2022-12-07T10:44:24;11.88;;;6.53;;
54193;SDS011;40102;50.906;6.972;2022-12-07T10:49:42;14.77;;;5.57;;
54193;SDS011;40102;50.906;6.972;2022-12-07T11:06:24;14.63;;;5.95;;
54193;SDS011;40102;50.906;6.972;2022-12-07T11:09:47;10.20;;;5.35;;
54193;SDS011;40102;50.906;6.972;2022-12-07T11:12:01;12.02;;;5.28;;
54193;SDS011;40102;50.906;6.972;2022-12-07T11:14:43;8.60;;;4.63;;
54193;SDS011;40102;50.906;6.972;2022-12-07T11:19:47;11.02;;;5.03;;
54193;SDS011;40102;50.906;6.972;2022-12-07T11:31:07;10.27;;;4.25;;
54193;SDS011;40102;50.906;6.972;2022-12-07T11:36:40;9.65;;;4.47;;
54193;SDS011;40102;50.906;6.972;2022-12-07T11:42:15;12.73;;;5.00;;
54193;SDS011;40102;50.906;6.972;2022-12-07T11:44:48;9.48;;;4.50;;
54193;SDS011;40102;50.906;6.972;2022-12-07T11:50:26;9.48;;;3.88;;
54193;SDS011;40102;50.906;6.972;2022-12-07T12:01:11;8.32;;;3.80;;
54193;SDS011;40102;50.906;6.972;2022-12-07T12:03:40;8.57;;;3.33;;
54193;SDS011;40102;50.906;6.972;2022-12-07T12:06:10;8.93;;;4.15;;
54193;SDS011;40102;50.906;6.972;2022-12-07T12:08:37;9.13;;;3.75;;
54193;SDS011;40102;50.906;6.972;2022-12-07T12:21:30;13.82;;;4.85;;
54193;SDS011;40102;50.906;6.972;2022-12-07T12:23:59;13.15;;;5.20;;
54193;SDS011;40102;50.906;6.972;2022-12-07T12:26:30;9.43;;;5.13;;
54193;SDS011;40102;50.906;6.972;2022-12-07T12:33:59;11.38;;;5.88;;
54193;SDS011;40102;50.906;6.972;2022-12-07T12:36:42;11.52;;;5.60;;
54193;SDS011;40102;50.906;6.972;2022-12-07T12:50:33;14.60;;;6.50;;
54193;SDS011;40102;50.906;6.972;2022-12-07T12:57:35;15.43;;;5.82;;
54193;SDS011;40102;50.906;6.972;2022-12-07T13:00:20;11.77;;;5.63;;
54193;SDS011;40102;50.906;6.972;2022-12-07T13:20:59;10.48;;;5.43;;
54193;SDS011;40102;50.906;6.972;2022-12-07T13:23:29;12.70;;;6.15;;
54193;SDS011;40102;50.906;6.972;2022-12-07T13:25:59;15.77;;;6.72;;
54193;SDS011;40102;50.906;6.972;2022-12-07T13:28:35;14.13;;;6.20;;
54193;SDS011;40102;50.906;6.972;2022-12-07T13:33:41;12.55;;;6.47;;
54193;SDS011;40102;50.906;6.972;2022-12-07T13:36:12;13.07;;;5.85;;
54193;SDS011;40102;50.906;6.972;2022-12-07T13:38:50;10.75;;;5.78;;
54193;SDS011;40102;50.906;6.972;2022-12-07T13:41:27;14.20;;;5.80;;
54193;SDS011;40102;50.906;6.972;2022-12-07T13:44:01;13.80;;;6.22;;
54193;SDS011;40102;50.906;6.972;2022-12-07T13:46:34;11.63;;;5.60;;
54193;SDS011;40102;50.906;6.972;2022-12-07T13:49:15;20.80;;;6.80;;
54193;SDS011;40102;50.906;6.972;2022-12-07T13:51:46;11.23;;;5.80;;
54193;SDS011;40102;50.906;6.972;2022-12-07T13:54:12;12.32;;;6.07;;
54193;SDS011;40102;50.906;6.972;2022-12-07T13:56:39;14.13;;;5.95;;
54193;SDS011;40102;50.906;6.972;2022-12-07T13:59:05;14.13;;;5.70;;
54193;SDS011;40102;50.906;6.972;2022-12-07T14:01:44;11.30;;;4.68;;
54193;SDS011;40102;50.906;6.972;2022-12-07T14:04:19;7.90;;;4.90;;
54193;SDS011;40102;50.906;6.972;2022-12-07T14:06:59;12.00;;;4.70;;
54193;SDS011;40102;50.906;6.972;2022-12-07T14:09:27;10.98;;;4.97;;
54193;SDS011;40102;50.906;6.972;2022-12-07T14:11:55;9.63;;;5.20;;
54193;SDS011;40102;50.906;6.972;2022-12-07T14:14:30;11.57;;;5.07;;
54193;SDS011;40102;50.906;6.972;2022-12-07T14:16:58;10.30;;;5.28;;
54193;SDS011;40102;50.906;6.972;2022-12-07T14:22:56;12.55;;;6.07;;
54193;SDS011;40102;50.906;6.972;2022-12-07T14:27:33;11.30;;;5.72;;
54193;SDS011;40102;50.906;6.972;2022-12-07T14:29:59;12.65;;;5.82;;
54193;SDS011;40102;50.906;6.972;2022-12-07T14:32:29;12.77;;;5.82;;
54193;SDS011;40102;50.906;6.972;2022-12-07T14:37:26;14.35;;;5.93;;
54193;SDS011;40102;50.906;6.972;2022-12-07T14:39:52;14.05;;;5.93;;
54193;SDS011;40102;50.906;6.972;2022-12-07T14:42:18;13.65;;;6.68;;
54193;SDS011;40102;50.906;6.972;2022-12-07T14:44:44;10.50;;;5.97;;
54193;SDS011;40102;50.906;6.972;2022-12-07T14:47:10;13.05;;;6.13;;
54193;SDS011;40102;50.906;6.972;2022-12-07T14:49:36;12.63;;;6.63;;
54193;SDS011;40102;50.906;6.972;2022-12-07T14:52:01;13.98;;;6.60;;
54193;SDS011;40102;50.906;6.972;2022-12-07T14:54:27;13.60;;;6.68;;
54193;SDS011;40102;50.906;6.972;2022-12-07T14:56:56;17.15;;;6.63;;
54193;SDS011;40102;50.906;6.972;2022-12-07T14:59:22;13.32;;;6.70;;
54193;SDS011;40102;50.906;6.972;2022-12-07T15:01:48;17.20;;;6.72;;
54193;SDS011;40102;50.906;6.972;2022-12-07T15:04:14;11.15;;;5.93;;
54193;SDS011;40102;50.906;6.972;2022-12-07T15:06:39;9.52;;;5.63;;
54193;SDS011;40102;50.906;6.972;2022-12-07T15:09:05;12.52;;;6.25;;
54193;SDS011;40102;50.906;6.972;2022-12-07T15:11:31;13.70;;;7.03;;
54193;SDS011;40102;50.906;6.972;2022-12-07T15:13:56;12.82;;;6.85;;
54193;SDS011;40102;50.906;6.972;2022-12-07T15:16:34;12.73;;;7.45;;
54193;SDS011;40102;50.906;6.972;2022-12-07T15:19:01;13.23;;;7.03;;
54193;SDS011;40102;50.906;6.972;2022-12-07T15:21:27;14.60;;;6.70;;
54193;SDS011;40102;50.906;6.972;2022-12-07T15:23:53;14.02;;;7.05;;
54193;SDS011;40102;50.906;6.972;2022-12-07T15:26:18;12.80;;;6.28;;
54193;SDS011;40102;50.906;6.972;2022-12-07T15:28:44;13.40;;;7.57;;
54193;SDS011;40102;50.906;6.972;2022-12-07T15:31:13;13.95;;;7.38;;
54193;SDS011;40102;50.906;6.972;2022-12-07T15:33:40;12.77;;;6.35;;
54193;SDS011;40102;50.906;6.972;2022-12-07T15:36:06;12.13;;;6.15;;
54193;SDS011;40102;50.906;6.972;2022-12-07T15:38:40;9.00;;;5.90;;
54193;SDS011;40102;50.906;6.972;2022-12-07T15:41:06;9.68;;;5.78;;
54193;SDS011;40102;50.906;6.972;2022-12-07T15:43:31;11.48;;;6.45;;
54193;SDS011;40102;50.906;6.972;2022-12-07T15:46:15;11.65;;;6.57;;
54193;SDS011;40102;50.906;6.972;2022-12-07T15:48:40;9.35;;;5.50;;
54193;SDS011;40102;50.906;6.972;2022-12-07T15:51:06;7.95;;;4.85;;
54193;SDS011;40102;50.906;6.972;2022-12-07T15:53:34;9.10;;;4.95;;
54193;SDS011;40102;50.906;6.972;2022-12-07T15:56:00;9.07;;;4.70;;
54193;SDS011;40102;50.906;6.972;2022-12-07T15:58:26;8.20;;;4.57;;
54193;SDS011;40102;50.906;6.972;2022-12-07T16:00:52;8.07;;;4.90;;
54193;SDS011;40102;50.906;6.972;2022-12-07T16:03:17;11.98;;;5.82;;
54193;SDS011;40102;50.906;6.972;2022-12-07T16:05:48;9.88;;;5.30;;
54193;SDS011;40102;50.906;6.972;2022-12-07T16:08:14;10.73;;;5.32;;
54193;SDS011;40102;50.906;6.972;2022-12-07T16:10:40;11.23;;;5.07;;
54193;SDS011;40102;50.906;6.972;2022-12-07T16:13:08;8.00;;;4.95;;
54193;SDS011;40102;50.906;6.972;2022-12-07T16:15:38;12.02;;;5.30;;
54193;SDS011;40102;50.906;6.972;2022-12-07T16:18:07;10.18;;;5.47;;
54193;SDS011;40102;50.906;6.972;2022-12-07T16:20:32;11.55;;;5.78;;
54193;SDS011;40102;50.906;6.972;2022-12-07T16:22:58;9.95;;;4.40;;
54193;SDS011;40102;50.906;6.972;2022-12-07T16:25:27;7.63;;;3.88;;
54193;SDS011;40102;50.906;6.972;2022-12-07T16:27:52;9.55;;;4.22;;
54193;SDS011;40102;50.906;6.972;2022-12-07T16:30:18;9.77;;;4.05;;
54193;SDS011;40102;50.906;6.972;2022-12-07T16:32:44;10.23;;;3.60;;
54193;SDS011;40102;50.906;6.972;2022-12-07T16:35:10;5.00;;;3.42;;
54193;SDS011;40102;50.906;6.972;2022-12-07T16:37:37;5.35;;;3.30;;
54193;SDS011;40102;50.906;6.972;2022-12-07T16:40:03;7.43;;;3.65;;
54193;SDS011;40102;50.906;6.972;2022-12-07T16:42:33;6.95;;;3.40;;
54193;SDS011;40102;50.906;6.972;2022-12-07T16:44:59;5.15;;;3.15;;
54193;SDS011;40102;50.906;6.972;2022-12-07T16:47:25;7.03;;;3.67;;
54193;SDS011;40102;50.906;6.972;2022-12-07T16:49:51;9.38;;;3.20;;
54193;SDS011;40102;50.906;6.972;2022-12-07T16:52:17;7.85;;;3.58;;